sensor_id;sensor_type;location;lat;lon;timestamp;temperature;humidity
5846;DHT22;2949;50.778;7.094;2023-05-07T00:00:36;13.50;99.90
5846;DHT22;2949;50.778;7.094;2023-05-07T00:03:02;13.40;99.90
5846;DHT22;2949;50.778;7.094;2023-05-07T00:05:28;13.40;99.90
5846;DHT22;2949;50.778;7.094;2023-05-07T00:07:53;13.30;99.90
5846;DHT22;2949;50.778;7.094;2023-05-07T00:10:19;13.30;99.90
5846;DHT22;2949;50.778;7.094;2023-05-07T00:12:45;13.30;99.90
5846;DHT22;2949;50.778;7.094;2023-05-07T00:15:10;13.40;99.90
5846;DHT22;2949;50.778;7.094;2023-05-07T00:17:36;13.40;99.90
5846;DHT22;2949;50.778;7.094;2023-05-07T00:20:03;13.40;99.90
5846;DHT22;2949;50.778;7.094;2023-05-07T00:22:29;13.40;99.90
5846;DHT22;2949;50.778;7.094;2023-05-07T00:24:55;13.40;99.90
5846;DHT22;2949;50.778;7.094;2023-05-07T00:27:22;13.40;99.90
5846;DHT22;2949;50.778;7.094;2023-05-07T00:29:47;13.40;99.90
5846;DHT22;2949;50.778;7.094;2023-05-07T00:32:13;13.40;99.90
5846;DHT22;2949;50.778;7.094;2023-05-07T00:34:38;13.40;99.90
5846;DHT22;2949;50.778;7.094;2023-05-07T00:37:05;13.40;99.90
5846;DHT22;2949;50.778;7.094;2023-05-07T00:39:30;13.30;99.90
5846;DHT22;2949;50.778;7.094;2023-05-07T00:41:56;13.30;99.90
5846;DHT22;2949;50.778;7.094;2023-05-07T00:44:22;13.30;99.90
5846;DHT22;2949;50.778;7.094;2023-05-07T00:46:48;13.30;99.90
5846;DHT22;2949;50.778;7.094;2023-05-07T00:49:15;13.30;99.90
5846;DHT22;2949;50.778;7.094;2023-05-07T00:51:41;13.30;99.90
5846;DHT22;2949;50.778;7.094;2023-05-07T00:54:07;13.30;99.90
5846;DHT22;2949;50.778;7.094;2023-05-07T00:56:34;13.30;99.90
5846;DHT22;2949;50.778;7.094;2023-05-07T00:59:01;13.30;99.90
5846;DHT22;2949;50.778;7.094;2023-05-07T01:01:27;13.30;99.90
5846;DHT22;2949;50.778;7.094;2023-05-07T01:03:53;13.30;99.90
5846;DHT22;2949;50.778;7.094;2023-05-07T01:06:19;13.30;99.90
5846;DHT22;2949;50.778;7.094;2023-05-07T01:08:46;13.30;99.90
5846;DHT22;2949;50.778;7.094;2023-05-07T01:11:13;13.20;99.90
5846;DHT22;2949;50.778;7.094;2023-05-07T01:13:39;13.20;99.90
5846;DHT22;2949;50.778;7.094;2023-05-07T01:16:06;13.20;99.90
5846;DHT22;2949;50.778;7.094;2023-05-07T01:18:32;13.20;99.90
5846;DHT22;2949;50.778;7.094;2023-05-07T01:20:58;13.30;99.90
5846;DHT22;2949;50.778;7.094;2023-05-07T01:23:25;13.30;99.90
5846;DHT22;2949;50.778;7.094;2023-05-07T01:25:53;13.30;99.90
5846;DHT22;2949;50.778;7.094;2023-05-07T01:28:19;13.30;99.90
5846;DHT22;2949;50.778;7.094;2023-05-07T01:30:49;13.30;99.90
5846;DHT22;2949;50.778;7.094;2023-05-07T01:33:19;13.30;99.90
5846;DHT22;2949;50.778;7.094;2023-05-07T01:35:53;13.20;99.90
5846;DHT22;2949;50.778;7.094;2023-05-07T01:38:19;13.20;99.90
5846;DHT22;2949;50.778;7.094;2023-05-07T01:40:46;13.20;99.90
5846;DHT22;2949;50.778;7.094;2023-05-07T01:43:12;13.20;99.90
5846;DHT22;2949;50.778;7.094;2023-05-07T01:45:38;13.10;99.90
5846;DHT22;2949;50.778;7.094;2023-05-07T01:48:06;13.20;99.90
5846;DHT22;2949;50.778;7.094;2023-05-07T01:50:32;13.20;99.90
5846;DHT22;2949;50.778;7.094;2023-05-07T01:52:58;13.10;99.90
5846;DHT22;2949;50.778;7.094;2023-05-07T01:55:23;13.10;99.90
5846;DHT22;2949;50.778;7.094;2023-05-07T01:57:49;13.10;99.90
5846;DHT22;2949;50.778;7.094;2023-05-07T02:00:15;13.10;99.90
5846;DHT22;2949;50.778;7.094;2023-05-07T02:02:40;13.10;99.90
5846;DHT22;2949;50.778;7.094;2023-05-07T02:05:06;13.20;99.90
5846;DHT22;2949;50.778;7.094;2023-05-07T02:07:32;13.10;99.90
5846;DHT22;2949;50.778;7.094;2023-05-07T02:09:57;13.20;99.90
5846;DHT22;2949;50.778;7.094;2023-05-07T02:12:23;13.20;99.90
5846;DHT22;2949;50.778;7.094;2023-05-07T02:14:49;13.20;99.90
5846;DHT22;2949;50.778;7.094;2023-05-07T02:17:15;13.20;99.90
5846;DHT22;2949;50.778;7.094;2023-05-07T02:19:40;13.20;99.90
5846;DHT22;2949;50.778;7.094;2023-05-07T02:22:06;13.20;99.90
5846;DHT22;2949;50.778;7.094;2023-05-07T02:24:32;13.20;99.90
5846;DHT22;2949;50.778;7.094;2023-05-07T02:26:57;13.10;99.90
5846;DHT22;2949;50.778;7.094;2023-05-07T02:29:23;13.10;99.90
5846;DHT22;2949;50.778;7.094;2023-05-07T02:31:49;13.10;99.90
5846;DHT22;2949;50.778;7.094;2023-05-07T02:34:18;13.20;99.90
5846;DHT22;2949;50.778;7.094;2023-05-07T02:36:43;13.10;99.90
5846;DHT22;2949;50.778;7.094;2023-05-07T02:39:09;13.10;99.90
5846;DHT22;2949;50.778;7.094;2023-05-07T02:41:34;13.10;99.90
5846;DHT22;2949;50.778;7.094;2023-05-07T02:44:00;13.10;99.90
5846;DHT22;2949;50.778;7.094;2023-05-07T02:46:26;13.10;99.90
5846;DHT22;2949;50.778;7.094;2023-05-07T02:48:51;13.00;99.90
5846;DHT22;2949;50.778;7.094;2023-05-07T02:51:20;13.00;99.90
5846;DHT22;2949;50.778;7.094;2023-05-07T02:53:46;13.00;99.90
5846;DHT22;2949;50.778;7.094;2023-05-07T02:56:11;13.00;99.90
5846;DHT22;2949;50.778;7.094;2023-05-07T02:58:37;12.90;99.90
5846;DHT22;2949;50.778;7.094;2023-05-07T03:01:05;12.90;99.90
5846;DHT22;2949;50.778;7.094;2023-05-07T03:03:30;12.90;99.90
5846;DHT22;2949;50.778;7.094;2023-05-07T03:05:56;12.90;99.90
5846;DHT22;2949;50.778;7.094;2023-05-07T03:08:21;12.90;99.90
5846;DHT22;2949;50.778;7.094;2023-05-07T03:10:47;12.80;99.90
5846;DHT22;2949;50.778;7.094;2023-05-07T03:13:12;12.80;99.90
5846;DHT22;2949;50.778;7.094;2023-05-07T03:15:38;12.80;99.90
5846;DHT22;2949;50.778;7.094;2023-05-07T03:18:03;12.80;99.90
5846;DHT22;2949;50.778;7.094;2023-05-07T03:20:29;12.80;99.90
5846;DHT22;2949;50.778;7.094;2023-05-07T03:22:55;12.80;99.90
5846;DHT22;2949;50.778;7.094;2023-05-07T03:25:20;12.80;99.90
5846;DHT22;2949;50.778;7.094;2023-05-07T03:27:46;12.80;99.90
5846;DHT22;2949;50.778;7.094;2023-05-07T03:30:12;12.80;99.90
5846;DHT22;2949;50.778;7.094;2023-05-07T03:32:37;12.80;99.90
5846;DHT22;2949;50.778;7.094;2023-05-07T03:35:03;12.90;99.90
5846;DHT22;2949;50.778;7.094;2023-05-07T03:37:29;12.90;99.90
5846;DHT22;2949;50.778;7.094;2023-05-07T03:39:54;12.80;99.90
5846;DHT22;2949;50.778;7.094;2023-05-07T03:42:20;12.80;99.90
5846;DHT22;2949;50.778;7.094;2023-05-07T03:44:45;12.80;99.90
5846;DHT22;2949;50.778;7.094;2023-05-07T03:47:11;12.80;99.90
5846;DHT22;2949;50.778;7.094;2023-05-07T03:49:38;12.80;99.90
5846;DHT22;2949;50.778;7.094;2023-05-07T03:52:04;12.90;99.90
5846;DHT22;2949;50.778;7.094;2023-05-07T03:54:30;12.70;99.90
5846;DHT22;2949;50.778;7.094;2023-05-07T03:56:56;12.70;99.90
5846;DHT22;2949;50.778;7.094;2023-05-07T03:59:22;12.70;99.90
5846;DHT22;2949;50.778;7.094;2023-05-07T04:01:47;12.70;99.90
5846;DHT22;2949;50.778;7.094;2023-05-07T04:04:14;12.70;99.90
5846;DHT22;2949;50.778;7.094;2023-05-07T04:06:40;12.80;99.90
5846;DHT22;2949;50.778;7.094;2023-05-07T04:09:05;12.80;99.90
5846;DHT22;2949;50.778;7.094;2023-05-07T04:11:31;12.80;99.90
5846;DHT22;2949;50.778;7.094;2023-05-07T04:13:57;12.80;99.90
5846;DHT22;2949;50.778;7.094;2023-05-07T04:16:23;12.80;99.90
5846;DHT22;2949;50.778;7.094;2023-05-07T04:18:48;12.90;99.90
5846;DHT22;2949;50.778;7.094;2023-05-07T04:21:18;13.00;99.90
5846;DHT22;2949;50.778;7.094;2023-05-07T04:23:44;13.00;99.90
5846;DHT22;2949;50.778;7.094;2023-05-07T04:26:09;13.10;99.90
5846;DHT22;2949;50.778;7.094;2023-05-07T04:28:35;13.10;99.90
5846;DHT22;2949;50.778;7.094;2023-05-07T04:31:01;13.10;99.90
5846;DHT22;2949;50.778;7.094;2023-05-07T04:33:26;13.20;99.90
5846;DHT22;2949;50.778;7.094;2023-05-07T04:35:52;13.20;99.90
5846;DHT22;2949;50.778;7.094;2023-05-07T04:38:17;13.30;99.90
5846;DHT22;2949;50.778;7.094;2023-05-07T04:40:44;13.30;99.90
5846;DHT22;2949;50.778;7.094;2023-05-07T04:43:10;13.40;99.90
5846;DHT22;2949;50.778;7.094;2023-05-07T04:45:36;13.50;99.90
5846;DHT22;2949;50.778;7.094;2023-05-07T04:48:02;13.50;99.90
5846;DHT22;2949;50.778;7.094;2023-05-07T04:50:27;13.50;99.90
5846;DHT22;2949;50.778;7.094;2023-05-07T04:52:53;13.50;99.90
5846;DHT22;2949;50.778;7.094;2023-05-07T04:55:18;13.50;99.90
5846;DHT22;2949;50.778;7.094;2023-05-07T04:57:44;13.60;99.90
5846;DHT22;2949;50.778;7.094;2023-05-07T05:00:10;13.60;99.90
5846;DHT22;2949;50.778;7.094;2023-05-07T05:02:39;13.70;99.90
5846;DHT22;2949;50.778;7.094;2023-05-07T05:05:05;13.70;99.90
5846;DHT22;2949;50.778;7.094;2023-05-07T05:07:31;13.80;99.90
5846;DHT22;2949;50.778;7.094;2023-05-07T05:09:56;13.90;99.90
5846;DHT22;2949;50.778;7.094;2023-05-07T05:12:22;14.00;99.90
5846;DHT22;2949;50.778;7.094;2023-05-07T05:14:48;14.20;99.90
5846;DHT22;2949;50.778;7.094;2023-05-07T05:17:13;14.30;99.90
5846;DHT22;2949;50.778;7.094;2023-05-07T05:19:39;14.50;99.90
5846;DHT22;2949;50.778;7.094;2023-05-07T05:22:05;14.70;99.90
5846;DHT22;2949;50.778;7.094;2023-05-07T05:24:31;14.90;99.90
5846;DHT22;2949;50.778;7.094;2023-05-07T05:26:56;15.20;99.90
5846;DHT22;2949;50.778;7.094;2023-05-07T05:29:22;15.40;99.90
5846;DHT22;2949;50.778;7.094;2023-05-07T05:31:48;15.70;99.90
5846;DHT22;2949;50.778;7.094;2023-05-07T05:34:13;15.90;99.90
5846;DHT22;2949;50.778;7.094;2023-05-07T05:36:39;16.00;99.90
5846;DHT22;2949;50.778;7.094;2023-05-07T05:39:04;16.00;99.90
5846;DHT22;2949;50.778;7.094;2023-05-07T05:41:30;16.10;99.90
5846;DHT22;2949;50.778;7.094;2023-05-07T05:43:55;16.10;99.90
5846;DHT22;2949;50.778;7.094;2023-05-07T05:46:21;16.00;99.90
5846;DHT22;2949;50.778;7.094;2023-05-07T05:48:47;16.00;99.90
5846;DHT22;2949;50.778;7.094;2023-05-07T05:51:12;16.00;99.90
5846;DHT22;2949;50.778;7.094;2023-05-07T05:53:38;16.10;99.90
5846;DHT22;2949;50.778;7.094;2023-05-07T05:56:04;16.10;99.90
5846;DHT22;2949;50.778;7.094;2023-05-07T05:58:29;16.00;99.90
5846;DHT22;2949;50.778;7.094;2023-05-07T06:00:55;16.00;99.90
5846;DHT22;2949;50.778;7.094;2023-05-07T06:03:21;15.90;99.90
5846;DHT22;2949;50.778;7.094;2023-05-07T06:05:47;16.00;99.90
5846;DHT22;2949;50.778;7.094;2023-05-07T06:08:13;16.10;99.90
5846;DHT22;2949;50.778;7.094;2023-05-07T06:10:38;16.40;99.90
5846;DHT22;2949;50.778;7.094;2023-05-07T06:13:04;16.60;99.90
5846;DHT22;2949;50.778;7.094;2023-05-07T06:15:30;16.90;99.90
5846;DHT22;2949;50.778;7.094;2023-05-07T06:17:56;17.20;99.90
5846;DHT22;2949;50.778;7.094;2023-05-07T06:20:22;17.40;99.90
5846;DHT22;2949;50.778;7.094;2023-05-07T06:22:48;17.60;99.90
5846;DHT22;2949;50.778;7.094;2023-05-07T06:25:14;17.80;99.90
5846;DHT22;2949;50.778;7.094;2023-05-07T06:27:39;18.00;99.90
5846;DHT22;2949;50.778;7.094;2023-05-07T06:30:06;18.20;99.90
5846;DHT22;2949;50.778;7.094;2023-05-07T06:32:31;18.30;99.90
5846;DHT22;2949;50.778;7.094;2023-05-07T06:34:57;18.40;99.90
5846;DHT22;2949;50.778;7.094;2023-05-07T06:37:22;18.40;99.90
5846;DHT22;2949;50.778;7.094;2023-05-07T06:39:48;18.40;99.90
5846;DHT22;2949;50.778;7.094;2023-05-07T06:42:14;18.40;99.90
5846;DHT22;2949;50.778;7.094;2023-05-07T06:44:39;18.40;99.90
5846;DHT22;2949;50.778;7.094;2023-05-07T06:47:05;18.30;99.90
5846;DHT22;2949;50.778;7.094;2023-05-07T06:49:30;18.30;99.90
5846;DHT22;2949;50.778;7.094;2023-05-07T06:51:56;18.50;99.90
5846;DHT22;2949;50.778;7.094;2023-05-07T06:54:22;18.80;99.90
5846;DHT22;2949;50.778;7.094;2023-05-07T06:56:48;19.00;99.90
5846;DHT22;2949;50.778;7.094;2023-05-07T06:59:13;19.30;99.90
5846;DHT22;2949;50.778;7.094;2023-05-07T07:01:39;19.40;99.90
5846;DHT22;2949;50.778;7.094;2023-05-07T07:04:05;19.50;99.90
5846;DHT22;2949;50.778;7.094;2023-05-07T07:06:30;19.60;99.90
5846;DHT22;2949;50.778;7.094;2023-05-07T07:08:57;20.00;99.90
5846;DHT22;2949;50.778;7.094;2023-05-07T07:11:23;20.30;99.90
5846;DHT22;2949;50.778;7.094;2023-05-07T07:13:48;20.80;99.90
5846;DHT22;2949;50.778;7.094;2023-05-07T07:16:14;21.30;99.90
5846;DHT22;2949;50.778;7.094;2023-05-07T07:18:39;21.70;99.90
5846;DHT22;2949;50.778;7.094;2023-05-07T07:21:05;21.90;99.90
5846;DHT22;2949;50.778;7.094;2023-05-07T07:23:30;22.40;99.90
5846;DHT22;2949;50.778;7.094;2023-05-07T07:25:56;22.70;99.90
5846;DHT22;2949;50.778;7.094;2023-05-07T07:28:22;22.80;99.90
5846;DHT22;2949;50.778;7.094;2023-05-07T07:30:47;22.50;99.90
5846;DHT22;2949;50.778;7.094;2023-05-07T07:33:13;22.40;99.90
5846;DHT22;2949;50.778;7.094;2023-05-07T07:35:39;22.30;99.90
5846;DHT22;2949;50.778;7.094;2023-05-07T07:38:04;21.90;99.90
5846;DHT22;2949;50.778;7.094;2023-05-07T07:40:30;21.80;99.90
5846;DHT22;2949;50.778;7.094;2023-05-07T07:42:56;21.80;99.90
5846;DHT22;2949;50.778;7.094;2023-05-07T07:45:22;21.60;99.90
5846;DHT22;2949;50.778;7.094;2023-05-07T07:47:47;21.70;99.90
5846;DHT22;2949;50.778;7.094;2023-05-07T07:50:13;21.80;99.90
5846;DHT22;2949;50.778;7.094;2023-05-07T07:52:38;21.80;99.90
5846;DHT22;2949;50.778;7.094;2023-05-07T07:55:04;21.90;99.90
5846;DHT22;2949;50.778;7.094;2023-05-07T07:57:30;21.60;99.90
5846;DHT22;2949;50.778;7.094;2023-05-07T07:59:56;21.60;99.90
5846;DHT22;2949;50.778;7.094;2023-05-07T08:02:21;21.60;99.90
5846;DHT22;2949;50.778;7.094;2023-05-07T08:04:47;21.50;99.90
5846;DHT22;2949;50.778;7.094;2023-05-07T08:07:13;21.50;99.90
5846;DHT22;2949;50.778;7.094;2023-05-07T08:09:39;21.60;99.90
5846;DHT22;2949;50.778;7.094;2023-05-07T08:12:06;21.80;99.90
5846;DHT22;2949;50.778;7.094;2023-05-07T08:14:31;21.80;99.90
5846;DHT22;2949;50.778;7.094;2023-05-07T08:16:57;21.90;99.90
5846;DHT22;2949;50.778;7.094;2023-05-07T08:19:22;22.10;99.90
5846;DHT22;2949;50.778;7.094;2023-05-07T08:21:48;22.10;99.90
5846;DHT22;2949;50.778;7.094;2023-05-07T08:24:14;22.20;99.90
5846;DHT22;2949;50.778;7.094;2023-05-07T08:26:40;22.40;99.90
5846;DHT22;2949;50.778;7.094;2023-05-07T08:29:07;23.10;99.90
5846;DHT22;2949;50.778;7.094;2023-05-07T08:31:32;23.70;99.90
5846;DHT22;2949;50.778;7.094;2023-05-07T08:33:58;23.80;99.90
5846;DHT22;2949;50.778;7.094;2023-05-07T08:36:24;24.40;99.90
5846;DHT22;2949;50.778;7.094;2023-05-07T08:38:51;25.20;99.90
5846;DHT22;2949;50.778;7.094;2023-05-07T08:41:17;25.90;99.90
5846;DHT22;2949;50.778;7.094;2023-05-07T08:43:47;26.30;99.90
5846;DHT22;2949;50.778;7.094;2023-05-07T08:46:19;26.40;99.90
5846;DHT22;2949;50.778;7.094;2023-05-07T08:48:45;26.60;99.90
5846;DHT22;2949;50.778;7.094;2023-05-07T08:51:16;26.70;99.90
5846;DHT22;2949;50.778;7.094;2023-05-07T08:53:43;27.10;99.90
5846;DHT22;2949;50.778;7.094;2023-05-07T08:56:09;28.00;97.10
5846;DHT22;2949;50.778;7.094;2023-05-07T08:58:35;28.70;95.60
5846;DHT22;2949;50.778;7.094;2023-05-07T09:01:08;29.40;95.50
5846;DHT22;2949;50.778;7.094;2023-05-07T09:03:34;30.70;89.90
5846;DHT22;2949;50.778;7.094;2023-05-07T09:06:00;31.10;87.60
5846;DHT22;2949;50.778;7.094;2023-05-07T09:08:26;31.30;80.90
5846;DHT22;2949;50.778;7.094;2023-05-07T09:10:52;31.00;80.40
5846;DHT22;2949;50.778;7.094;2023-05-07T09:13:18;30.40;81.60
5846;DHT22;2949;50.778;7.094;2023-05-07T09:15:43;29.80;81.20
5846;DHT22;2949;50.778;7.094;2023-05-07T09:18:09;29.60;82.20
5846;DHT22;2949;50.778;7.094;2023-05-07T09:20:36;29.40;82.30
5846;DHT22;2949;50.778;7.094;2023-05-07T09:23:02;29.30;83.60
5846;DHT22;2949;50.778;7.094;2023-05-07T09:25:32;29.30;82.10
5846;DHT22;2949;50.778;7.094;2023-05-07T09:27:59;29.30;82.50
5846;DHT22;2949;50.778;7.094;2023-05-07T09:30:29;29.00;82.00
5846;DHT22;2949;50.778;7.094;2023-05-07T09:32:56;28.90;81.00
5846;DHT22;2949;50.778;7.094;2023-05-07T09:35:21;28.90;80.50
5846;DHT22;2949;50.778;7.094;2023-05-07T09:37:49;29.00;81.40
5846;DHT22;2949;50.778;7.094;2023-05-07T09:40:29;28.80;81.30
5846;DHT22;2949;50.778;7.094;2023-05-07T09:42:55;28.40;83.10
5846;DHT22;2949;50.778;7.094;2023-05-07T09:45:29;27.90;85.00
5846;DHT22;2949;50.778;7.094;2023-05-07T09:47:56;27.30;86.20
5846;DHT22;2949;50.778;7.094;2023-05-07T09:50:27;26.90;89.10
5846;DHT22;2949;50.778;7.094;2023-05-07T09:52:54;26.70;91.10
5846;DHT22;2949;50.778;7.094;2023-05-07T09:55:21;26.70;91.00
5846;DHT22;2949;50.778;7.094;2023-05-07T09:57:50;27.10;90.00
5846;DHT22;2949;50.778;7.094;2023-05-07T10:00:20;27.40;89.30
5846;DHT22;2949;50.778;7.094;2023-05-07T10:02:51;27.80;88.50
5846;DHT22;2949;50.778;7.094;2023-05-07T10:05:18;28.30;89.50
5846;DHT22;2949;50.778;7.094;2023-05-07T10:07:44;29.10;85.10
5846;DHT22;2949;50.778;7.094;2023-05-07T10:10:10;29.90;84.90
5846;DHT22;2949;50.778;7.094;2023-05-07T10:12:36;30.50;80.30
5846;DHT22;2949;50.778;7.094;2023-05-07T10:15:08;30.90;78.00
5846;DHT22;2949;50.778;7.094;2023-05-07T10:17:36;31.40;74.20
5846;DHT22;2949;50.778;7.094;2023-05-07T10:20:02;31.40;76.40
5846;DHT22;2949;50.778;7.094;2023-05-07T10:22:33;31.50;74.30
5846;DHT22;2949;50.778;7.094;2023-05-07T10:25:02;31.60;73.20
5846;DHT22;2949;50.778;7.094;2023-05-07T10:27:29;31.50;72.40
5846;DHT22;2949;50.778;7.094;2023-05-07T10:30:19;31.10;73.00
5846;DHT22;2949;50.778;7.094;2023-05-07T10:32:54;30.10;75.20
5846;DHT22;2949;50.778;7.094;2023-05-07T10:35:23;29.60;75.40
5846;DHT22;2949;50.778;7.094;2023-05-07T10:37:50;28.80;77.70
5846;DHT22;2949;50.778;7.094;2023-05-07T10:40:16;28.50;78.90
5846;DHT22;2949;50.778;7.094;2023-05-07T10:43:03;28.00;81.90
5846;DHT22;2949;50.778;7.094;2023-05-07T10:45:32;27.70;84.20
5846;DHT22;2949;50.778;7.094;2023-05-07T10:50:33;27.80;83.40
5846;DHT22;2949;50.778;7.094;2023-05-07T10:55:44;28.10;85.00
5846;DHT22;2949;50.778;7.094;2023-05-07T10:58:29;28.30;84.00
5846;DHT22;2949;50.778;7.094;2023-05-07T11:01:00;28.50;79.80
5846;DHT22;2949;50.778;7.094;2023-05-07T11:03:27;28.40;83.00
5846;DHT22;2949;50.778;7.094;2023-05-07T11:11:17;27.90;81.50
5846;DHT22;2949;50.778;7.094;2023-05-07T11:16:22;27.80;80.00
5846;DHT22;2949;50.778;7.094;2023-05-07T11:18:50;27.60;82.40
5846;DHT22;2949;50.778;7.094;2023-05-07T11:21:41;27.80;82.30
5846;DHT22;2949;50.778;7.094;2023-05-07T11:24:08;27.80;79.10
5846;DHT22;2949;50.778;7.094;2023-05-07T11:26:47;27.80;77.80
5846;DHT22;2949;50.778;7.094;2023-05-07T11:29:15;27.40;78.20
5846;DHT22;2949;50.778;7.094;2023-05-07T11:31:42;27.10;80.50
5846;DHT22;2949;50.778;7.094;2023-05-07T11:34:08;27.10;82.30
5846;DHT22;2949;50.778;7.094;2023-05-07T11:36:34;27.00;84.30
5846;DHT22;2949;50.778;7.094;2023-05-07T11:39:00;27.10;82.20
5846;DHT22;2949;50.778;7.094;2023-05-07T11:41:37;27.20;83.70
5846;DHT22;2949;50.778;7.094;2023-05-07T11:44:03;27.20;82.00
5846;DHT22;2949;50.778;7.094;2023-05-07T11:46:29;27.20;78.40
5846;DHT22;2949;50.778;7.094;2023-05-07T11:48:55;27.00;80.70
5846;DHT22;2949;50.778;7.094;2023-05-07T11:51:23;27.10;81.30
5846;DHT22;2949;50.778;7.094;2023-05-07T11:53:49;27.20;80.50
5846;DHT22;2949;50.778;7.094;2023-05-07T11:56:17;27.20;83.00
5846;DHT22;2949;50.778;7.094;2023-05-07T11:58:44;27.20;81.10
5846;DHT22;2949;50.778;7.094;2023-05-07T12:01:12;27.00;81.70
5846;DHT22;2949;50.778;7.094;2023-05-07T12:03:40;26.90;81.00
5846;DHT22;2949;50.778;7.094;2023-05-07T12:06:10;26.70;80.20
5846;DHT22;2949;50.778;7.094;2023-05-07T12:08:38;26.40;81.20
5846;DHT22;2949;50.778;7.094;2023-05-07T12:11:07;26.00;81.20
5846;DHT22;2949;50.778;7.094;2023-05-07T12:13:34;25.80;84.10
5846;DHT22;2949;50.778;7.094;2023-05-07T12:15:59;25.60;83.40
5846;DHT22;2949;50.778;7.094;2023-05-07T12:18:26;25.30;84.50
5846;DHT22;2949;50.778;7.094;2023-05-07T12:20:52;25.10;83.20
5846;DHT22;2949;50.778;7.094;2023-05-07T12:23:18;24.80;85.70
5846;DHT22;2949;50.778;7.094;2023-05-07T12:25:44;24.50;86.70
5846;DHT22;2949;50.778;7.094;2023-05-07T12:28:13;24.10;87.60
5846;DHT22;2949;50.778;7.094;2023-05-07T12:30:46;23.80;88.50
5846;DHT22;2949;50.778;7.094;2023-05-07T12:33:16;23.50;90.00
5846;DHT22;2949;50.778;7.094;2023-05-07T12:35:42;23.30;91.00
5846;DHT22;2949;50.778;7.094;2023-05-07T12:38:12;23.10;91.80
5846;DHT22;2949;50.778;7.094;2023-05-07T12:40:41;23.00;92.40
5846;DHT22;2949;50.778;7.094;2023-05-07T12:43:07;22.80;93.30
5846;DHT22;2949;50.778;7.094;2023-05-07T12:45:37;22.70;94.70
5846;DHT22;2949;50.778;7.094;2023-05-07T12:48:04;22.50;95.90
5846;DHT22;2949;50.778;7.094;2023-05-07T12:50:33;22.50;98.90
5846;DHT22;2949;50.778;7.094;2023-05-07T12:52:59;22.40;99.90
5846;DHT22;2949;50.778;7.094;2023-05-07T12:55:25;22.40;99.90
5846;DHT22;2949;50.778;7.094;2023-05-07T12:57:52;22.50;99.90
5846;DHT22;2949;50.778;7.094;2023-05-07T13:00:33;22.50;99.90
5846;DHT22;2949;50.778;7.094;2023-05-07T13:02:58;22.60;99.90
5846;DHT22;2949;50.778;7.094;2023-05-07T13:05:24;22.70;99.90
5846;DHT22;2949;50.778;7.094;2023-05-07T13:07:53;22.70;99.90
5846;DHT22;2949;50.778;7.094;2023-05-07T13:10:20;22.50;99.90
5846;DHT22;2949;50.778;7.094;2023-05-07T13:12:45;22.30;99.90
5846;DHT22;2949;50.778;7.094;2023-05-07T13:15:11;22.30;99.90
5846;DHT22;2949;50.778;7.094;2023-05-07T13:17:36;22.20;99.90
5846;DHT22;2949;50.778;7.094;2023-05-07T13:20:02;22.20;99.90
5846;DHT22;2949;50.778;7.094;2023-05-07T13:22:27;22.10;99.90
5846;DHT22;2949;50.778;7.094;2023-05-07T13:24:53;22.20;99.90
5846;DHT22;2949;50.778;7.094;2023-05-07T13:27:18;22.10;99.90
5846;DHT22;2949;50.778;7.094;2023-05-07T13:29:45;22.10;99.90
5846;DHT22;2949;50.778;7.094;2023-05-07T13:32:10;22.20;99.90
5846;DHT22;2949;50.778;7.094;2023-05-07T13:34:36;22.50;99.90
5846;DHT22;2949;50.778;7.094;2023-05-07T13:37:02;22.70;99.90
5846;DHT22;2949;50.778;7.094;2023-05-07T13:39:28;22.90;99.90
5846;DHT22;2949;50.778;7.094;2023-05-07T13:41:54;23.10;99.90
5846;DHT22;2949;50.778;7.094;2023-05-07T13:44:19;23.30;99.90
5846;DHT22;2949;50.778;7.094;2023-05-07T13:46:46;23.40;99.90
5846;DHT22;2949;50.778;7.094;2023-05-07T13:49:11;23.20;99.90
5846;DHT22;2949;50.778;7.094;2023-05-07T13:51:38;23.20;99.90
5846;DHT22;2949;50.778;7.094;2023-05-07T13:54:03;23.20;99.90
5846;DHT22;2949;50.778;7.094;2023-05-07T13:56:29;23.30;99.90
5846;DHT22;2949;50.778;7.094;2023-05-07T13:58:57;23.40;99.90
5846;DHT22;2949;50.778;7.094;2023-05-07T14:01:22;23.30;99.90
5846;DHT22;2949;50.778;7.094;2023-05-07T14:03:48;23.20;99.90
5846;DHT22;2949;50.778;7.094;2023-05-07T14:06:13;23.00;99.90
5846;DHT22;2949;50.778;7.094;2023-05-07T14:08:40;22.90;99.90
5846;DHT22;2949;50.778;7.094;2023-05-07T14:11:06;22.90;99.90
5846;DHT22;2949;50.778;7.094;2023-05-07T14:13:31;23.00;99.90
5846;DHT22;2949;50.778;7.094;2023-05-07T14:15:58;23.00;99.90
5846;DHT22;2949;50.778;7.094;2023-05-07T14:18:24;22.90;99.90
5846;DHT22;2949;50.778;7.094;2023-05-07T14:20:49;22.70;99.90
5846;DHT22;2949;50.778;7.094;2023-05-07T14:23:15;22.70;99.90
5846;DHT22;2949;50.778;7.094;2023-05-07T14:25:43;22.50;99.90
5846;DHT22;2949;50.778;7.094;2023-05-07T14:28:08;22.20;99.90
5846;DHT22;2949;50.778;7.094;2023-05-07T14:30:34;22.00;99.90
5846;DHT22;2949;50.778;7.094;2023-05-07T14:33:00;21.80;99.90
5846;DHT22;2949;50.778;7.094;2023-05-07T14:35:25;21.80;99.90
5846;DHT22;2949;50.778;7.094;2023-05-07T14:37:51;21.70;99.90
5846;DHT22;2949;50.778;7.094;2023-05-07T14:40:16;21.50;99.90
5846;DHT22;2949;50.778;7.094;2023-05-07T14:42:42;21.50;99.90
5846;DHT22;2949;50.778;7.094;2023-05-07T14:45:08;21.50;99.90
5846;DHT22;2949;50.778;7.094;2023-05-07T14:47:34;21.50;99.90
5846;DHT22;2949;50.778;7.094;2023-05-07T14:49:59;21.50;99.90
5846;DHT22;2949;50.778;7.094;2023-05-07T14:52:26;21.60;99.90
5846;DHT22;2949;50.778;7.094;2023-05-07T14:54:52;21.50;99.90
5846;DHT22;2949;50.778;7.094;2023-05-07T14:57:17;21.50;99.90
5846;DHT22;2949;50.778;7.094;2023-05-07T14:59:43;21.40;99.90
5846;DHT22;2949;50.778;7.094;2023-05-07T15:02:11;21.30;99.90
5846;DHT22;2949;50.778;7.094;2023-05-07T15:04:37;21.20;99.90
5846;DHT22;2949;50.778;7.094;2023-05-07T15:07:03;21.10;99.90
5846;DHT22;2949;50.778;7.094;2023-05-07T15:09:29;20.90;99.90
5846;DHT22;2949;50.778;7.094;2023-05-07T15:11:55;20.70;99.90
5846;DHT22;2949;50.778;7.094;2023-05-07T15:14:21;20.60;99.90
5846;DHT22;2949;50.778;7.094;2023-05-07T15:16:50;20.50;99.90
5846;DHT22;2949;50.778;7.094;2023-05-07T15:19:15;20.40;99.90
5846;DHT22;2949;50.778;7.094;2023-05-07T15:21:42;20.20;99.90
5846;DHT22;2949;50.778;7.094;2023-05-07T15:24:07;20.00;99.90
5846;DHT22;2949;50.778;7.094;2023-05-07T15:26:33;19.70;99.90
5846;DHT22;2949;50.778;7.094;2023-05-07T15:28:58;19.60;99.90
5846;DHT22;2949;50.778;7.094;2023-05-07T15:31:24;19.40;99.90
5846;DHT22;2949;50.778;7.094;2023-05-07T15:33:50;19.30;99.90
5846;DHT22;2949;50.778;7.094;2023-05-07T15:36:17;19.20;99.90
5846;DHT22;2949;50.778;7.094;2023-05-07T15:38:43;19.10;99.90
5846;DHT22;2949;50.778;7.094;2023-05-07T15:41:08;19.10;99.90
5846;DHT22;2949;50.778;7.094;2023-05-07T15:43:44;19.10;99.90
5846;DHT22;2949;50.778;7.094;2023-05-07T15:46:11;19.10;99.90
5846;DHT22;2949;50.778;7.094;2023-05-07T15:48:36;19.10;99.90
5846;DHT22;2949;50.778;7.094;2023-05-07T15:51:02;19.10;99.90
5846;DHT22;2949;50.778;7.094;2023-05-07T15:53:28;19.20;99.90
5846;DHT22;2949;50.778;7.094;2023-05-07T15:55:53;19.20;99.90
5846;DHT22;2949;50.778;7.094;2023-05-07T15:58:19;19.20;99.90
5846;DHT22;2949;50.778;7.094;2023-05-07T16:00:45;19.20;99.90
5846;DHT22;2949;50.778;7.094;2023-05-07T16:03:11;19.10;99.90
5846;DHT22;2949;50.778;7.094;2023-05-07T16:05:36;19.10;99.90
5846;DHT22;2949;50.778;7.094;2023-05-07T16:08:02;19.10;99.90
5846;DHT22;2949;50.778;7.094;2023-05-07T16:10:29;19.10;99.90